createdAt,value
2022-09-28T00:01:08.022Z,57.40
2022-09-28T00:03:35.402Z,73.00
2022-09-28T00:06:08.049Z,55.40
2022-09-28T00:11:03.279Z,72.70
2022-09-28T00:16:05.683Z,55.90
2022-09-28T00:18:33.501Z,74.00
2022-09-28T00:21:02.649Z,57.90
2022-09-28T00:23:29.620Z,68.10
2022-09-28T00:28:23.672Z,67.20
2022-09-28T00:30:55.591Z,57.80
2022-09-28T00:35:59.555Z,55.40
2022-09-28T00:38:28.398Z,74.40
2022-09-28T00:43:24.769Z,58.10
2022-09-28T00:46:05.085Z,71.70
2022-09-28T00:48:36.356Z,74.60
2022-09-28T00:51:09.097Z,58.00
2022-09-28T00:53:40.169Z,58.10
2022-09-28T00:56:19.111Z,72.70
2022-09-28T00:58:49.897Z,62.10
2022-09-28T01:03:45.556Z,64.90
2022-09-28T01:06:21.436Z,58.20
2022-09-28T01:08:51.871Z,71.60
2022-09-28T01:11:19.945Z,58.20
2022-09-28T01:13:51.246Z,58.50
2022-09-28T01:16:24.525Z,74.80
2022-09-28T01:19:26.185Z,73.70
2022-09-28T01:22:25.297Z,73.60
2022-09-28T01:25:17.661Z,58.00
2022-09-28T01:28:13.379Z,67.70
2022-09-28T01:30:58.272Z,56.50
2022-09-28T01:33:35.768Z,74.20
2022-09-28T01:36:23.312Z,58.60
2022-09-28T01:38:55.060Z,58.70
2022-09-28T01:41:24.058Z,74.30
2022-09-28T01:43:55.731Z,58.20
2022-09-28T01:46:36.011Z,73.90
2022-09-28T01:49:09.980Z,58.40
2022-09-28T01:51:43.623Z,75.00
2022-09-28T01:54:19.026Z,56.30
2022-09-28T01:56:52.648Z,65.90
2022-09-28T01:59:27.072Z,58.40
2022-09-28T02:01:57.440Z,66.70
2022-09-28T02:04:32.624Z,58.50
2022-09-28T02:07:07.722Z,74.80
2022-09-28T02:09:44.283Z,75.20
2022-09-28T02:12:16.131Z,58.90
2022-09-28T02:14:45.563Z,58.80
2022-09-28T02:17:12.973Z,57.70
2022-09-28T02:19:41.310Z,58.10
2022-09-28T02:22:30.842Z,74.60
2022-09-28T02:25:07.687Z,59.30
2022-09-28T02:27:36.676Z,59.50
2022-09-28T02:30:05.265Z,59.70
2022-09-28T02:32:35.577Z,75.00
2022-09-28T02:37:29.674Z,66.60
2022-09-28T02:42:39.122Z,63.40
2022-09-28T02:45:24.262Z,61.60
2022-09-28T02:48:41.330Z,57.50
2022-09-28T02:51:41.422Z,57.20
2022-09-28T02:54:26.284Z,75.80
2022-09-28T02:57:23.840Z,57.50
2022-09-28T03:00:12.043Z,57.70
2022-09-28T03:03:13.997Z,60.60
2022-09-28T03:06:18.964Z,57.50
2022-09-28T03:11:25.637Z,75.40
2022-09-28T03:23:47.351Z,75.30
2022-09-28T03:26:16.884Z,74.50
2022-09-28T03:33:44.288Z,59.10
2022-09-28T03:38:38.958Z,76.90
2022-09-28T03:41:07.896Z,76.90
2022-09-28T03:43:36.961Z,74.40
2022-09-28T03:51:09.131Z,75.70
2022-09-28T03:53:36.459Z,59.20
2022-09-28T03:56:08.905Z,70.30
2022-09-28T04:01:12.961Z,72.70
2022-09-28T04:03:43.748Z,59.30
2022-09-28T04:08:38.363Z,71.30
2022-09-28T04:16:01.888Z,75.60
2022-09-28T04:18:33.047Z,75.50
2022-09-28T04:21:12.234Z,76.20
2022-09-28T04:26:25.497Z,58.00
2022-09-28T04:31:47.819Z,61.70
2022-09-28T04:34:20.228Z,60.20
2022-09-28T04:39:16.235Z,60.60
2022-09-28T04:41:47.944Z,60.20
2022-09-28T05:01:58.016Z,76.90
2022-09-28T05:07:41.026Z,76.40
2022-09-28T05:15:07.743Z,66.20
2022-09-28T05:20:05.451Z,76.50
2022-09-28T05:22:33.523Z,60.00
2022-09-28T05:53:05.798Z,68.90
2022-09-28T05:58:02.052Z,77.00
2022-09-28T06:00:30.484Z,61.20
2022-09-28T06:05:25.261Z,60.40
2022-09-28T06:12:48.583Z,77.80
2022-09-28T06:20:35.572Z,61.60
2022-09-28T06:23:13.544Z,61.40
2022-09-28T06:28:11.812Z,61.50
2022-09-28T06:30:40.060Z,60.20
2022-09-28T06:33:12.699Z,64.80
2022-09-28T06:43:12.619Z,61.50
2022-09-28T06:48:33.559Z,77.80
2022-09-28T06:51:01.793Z,77.80
2022-09-28T06:56:10.381Z,59.90
2022-09-28T06:58:37.628Z,59.40
2022-09-28T07:01:05.771Z,77.00
2022-09-28T07:07:14.171Z,65.60
2022-09-28T07:15:18.409Z,76.60
2022-09-28T07:17:59.391Z,76.80
2022-09-28T07:31:09.712Z,75.60
2022-09-28T07:46:36.902Z,73.70
2022-09-28T07:52:18.644Z,74.40
2022-09-28T07:55:07.263Z,71.70
2022-09-28T08:01:11.789Z,57.10
2022-09-28T08:06:11.230Z,55.80
2022-09-28T08:08:39.193Z,55.40
2022-09-28T08:11:07.041Z,70.70
2022-09-28T08:21:53.466Z,70.20
2022-09-28T08:24:21.125Z,70.00
2022-09-28T08:29:17.760Z,69.90
2022-09-28T08:31:50.842Z,63.20
2022-09-28T08:34:40.630Z,55.40
2022-09-28T08:40:57.552Z,50.90
2022-09-28T08:44:12.374Z,48.60
2022-09-28T08:47:06.564Z,50.00
2022-09-28T08:49:47.024Z,49.60
2022-09-28T08:52:55.050Z,48.70
2022-09-28T08:55:43.179Z,55.00
2022-09-28T08:58:30.404Z,64.40
2022-09-28T09:03:33.887Z,46.10
2022-09-28T09:06:27.598Z,62.70
2022-09-28T09:09:13.232Z,45.10
2022-09-28T09:12:00.728Z,42.70
2022-09-28T09:14:37.536Z,58.50
2022-09-28T09:17:32.436Z,40.00
2022-09-28T09:20:24.977Z,54.60
2022-09-28T09:23:10.552Z,36.00
2022-09-28T09:25:47.531Z,53.20
2022-09-28T09:28:36.182Z,36.00
2022-09-28T09:31:27.987Z,35.40
2022-09-28T09:34:11.963Z,53.90
2022-09-28T09:37:03.200Z,39.20
2022-09-28T09:40:07.447Z,35.30
2022-09-28T09:43:28.058Z,54.00
2022-09-28T09:46:57.701Z,37.70
2022-09-28T09:49:57.259Z,46.30
2022-09-28T09:58:11.441Z,46.50
2022-09-28T10:00:50.932Z,30.30
2022-09-28T10:03:47.046Z,46.90
2022-09-28T10:06:30.116Z,35.10
2022-09-28T10:09:31.186Z,31.40
2022-09-28T10:12:22.847Z,32.90
2022-09-28T10:14:50.591Z,48.20
2022-09-28T10:17:20.095Z,29.30
2022-09-28T10:20:06.669Z,43.10
2022-09-28T10:22:43.781Z,45.90
2022-09-28T10:25:16.025Z,45.40
2022-09-28T10:27:46.121Z,44.80
2022-09-28T10:30:18.476Z,46.90
2022-09-28T10:32:48.928Z,46.20
2022-09-28T10:35:19.755Z,28.80
2022-09-28T10:38:13.622Z,29.20
2022-09-28T10:40:49.879Z,29.70
2022-09-28T10:43:29.065Z,46.90
2022-09-28T10:46:09.363Z,29.90
2022-09-28T10:49:06.089Z,42.80
2022-09-28T10:51:44.656Z,42.40
2022-09-28T10:54:22.977Z,26.80
2022-09-28T10:56:53.513Z,27.70
2022-09-28T10:59:30.851Z,27.30
2022-09-28T11:02:29.497Z,42.70
2022-09-28T11:05:06.558Z,29.10
2022-09-28T11:07:47.122Z,32.30
2022-09-28T11:10:23.728Z,27.50
2022-09-28T11:12:52.983Z,27.90
2022-09-28T11:15:25.578Z,27.20
2022-09-28T11:20:27.902Z,36.90
2022-09-28T11:23:22.147Z,29.80
2022-09-28T11:26:04.523Z,22.80
2022-09-28T11:28:34.469Z,20.30
2022-09-28T11:36:52.868Z,17.70
2022-09-28T11:39:39.942Z,28.20
2022-09-28T11:44:48.057Z,28.40
2022-09-28T11:50:24.354Z,22.20
2022-09-28T11:53:03.741Z,24.60
2022-09-28T11:55:39.905Z,26.20
2022-09-28T11:58:23.113Z,41.90
2022-09-28T12:00:56.300Z,28.40
2022-09-28T12:03:46.771Z,28.80
2022-09-28T12:06:18.449Z,45.20
2022-09-28T12:09:16.457Z,29.90
2022-09-28T12:11:58.787Z,29.90
2022-09-28T12:14:45.661Z,31.00
2022-09-28T12:17:24.669Z,46.90
2022-09-28T12:20:05.701Z,47.20
2022-09-28T12:22:38.069Z,33.50
2022-09-28T12:25:12.579Z,50.30
2022-09-28T12:27:53.645Z,34.50
2022-09-28T12:30:22.733Z,36.70
2022-09-28T12:33:13.174Z,52.00
2022-09-28T12:36:19.679Z,33.30
2022-09-28T12:39:21.748Z,48.50
2022-09-28T12:42:01.797Z,39.90
2022-09-28T12:44:58.570Z,45.40
2022-09-28T12:47:47.916Z,31.40
2022-09-28T12:50:53.949Z,37.80
2022-09-28T12:53:44.116Z,49.10
2022-09-28T12:56:11.779Z,39.50
2022-09-28T12:58:59.992Z,34.60
2022-09-28T13:06:45.143Z,37.00
2022-09-28T13:09:22.514Z,51.30
2022-09-28T13:12:25.563Z,37.20
2022-09-28T13:15:08.625Z,37.90
2022-09-28T13:17:54.181Z,55.10
2022-09-28T13:20:54.097Z,39.20
2022-09-28T13:23:27.691Z,38.90
2022-09-28T13:26:07.120Z,39.00
2022-09-28T13:28:37.381Z,40.20
2022-09-28T13:31:05.356Z,40.60
2022-09-28T13:33:41.537Z,40.70
2022-09-28T13:36:33.045Z,39.50
2022-09-28T13:39:00.809Z,56.90
2022-09-28T13:41:33.440Z,39.50
2022-09-28T13:44:20.271Z,47.10
2022-09-28T13:49:17.299Z,38.90
2022-09-28T13:52:02.702Z,55.90
2022-09-28T13:54:55.638Z,40.30
2022-09-28T13:57:28.187Z,39.40
2022-09-28T14:00:19.072Z,40.60
2022-09-28T14:02:51.990Z,41.00
2022-09-28T14:05:41.206Z,39.80
2022-09-28T14:08:34.635Z,45.90
2022-09-28T14:11:24.725Z,43.60
2022-09-28T14:13:59.962Z,56.30
2022-09-28T14:16:32.607Z,40.50
2022-09-28T14:19:24.862Z,55.60
2022-09-28T14:22:19.327Z,39.30
2022-09-28T14:25:11.036Z,38.90
2022-09-28T14:30:13.763Z,37.20
2022-09-28T14:32:45.286Z,55.80
2022-09-28T14:35:18.941Z,52.40
2022-09-28T14:38:07.420Z,39.00
2022-09-28T14:41:20.207Z,38.10
2022-09-28T14:48:47.935Z,38.40
2022-09-28T14:51:26.714Z,54.00
2022-09-28T14:53:55.339Z,37.30
2022-09-28T14:58:56.781Z,36.60
2022-09-28T15:01:25.464Z,36.20
2022-09-28T15:03:56.132Z,39.50
2022-09-28T15:06:24.381Z,36.70
2022-09-28T15:11:24.599Z,36.30
2022-09-28T15:14:04.516Z,51.80
2022-09-28T15:19:35.480Z,34.20
2022-09-28T15:24:34.598Z,49.90
2022-09-28T15:27:04.626Z,34.10
2022-09-28T15:34:51.566Z,27.30
2022-09-28T15:37:40.658Z,28.10
2022-09-28T15:40:15.186Z,20.20
2022-09-28T15:42:42.487Z,23.70
2022-09-28T15:45:34.630Z,16.30
2022-09-28T15:48:34.176Z,19.40
2022-09-28T15:51:10.690Z,16.80
2022-09-28T15:54:03.001Z,17.10
2022-09-28T15:56:30.989Z,13.00
2022-09-28T15:59:11.516Z,18.90
2022-09-28T16:01:40.383Z,17.40
2022-09-28T16:04:47.953Z,11.40
2022-09-28T16:07:56.042Z,9.00
2022-09-28T16:10:34.551Z,14.80
2022-09-28T16:13:18.605Z,8.40
2022-09-28T16:15:45.816Z,7.40
2022-09-28T16:18:20.165Z,14.50
2022-09-28T16:20:50.368Z,8.20
2022-09-28T16:23:17.201Z,8.40
2022-09-28T16:26:02.826Z,9.50
2022-09-28T16:28:38.418Z,11.30
2022-09-28T16:31:27.260Z,22.30
2022-09-28T16:34:01.163Z,14.60
2022-09-28T16:36:38.517Z,15.60
2022-09-28T16:41:32.765Z,21.00
2022-09-28T16:44:02.171Z,22.30
2022-09-28T16:46:37.330Z,20.20
2022-09-28T16:49:06.780Z,21.20
2022-09-28T16:51:33.990Z,23.80
2022-09-28T16:54:32.290Z,23.10
2022-09-28T17:04:24.396Z,27.20
2022-09-28T17:06:54.233Z,28.40
2022-09-28T17:09:22.216Z,29.10
2022-09-28T17:14:24.061Z,30.10
2022-09-28T17:17:13.780Z,31.30
2022-09-28T17:19:40.932Z,48.50
2022-09-28T17:22:09.345Z,33.00
2022-09-28T17:41:51.768Z,52.90
2022-09-28T17:44:20.467Z,54.00
2022-09-28T17:46:49.515Z,52.30
2022-09-28T17:49:16.980Z,38.40
2022-09-28T17:59:10.608Z,40.10
2022-09-28T18:01:39.707Z,40.40
2022-09-28T18:04:08.771Z,40.90
2022-09-28T18:06:37.055Z,45.30
2022-09-28T18:09:04.720Z,49.60
2022-09-28T18:11:32.404Z,40.50
2022-09-28T18:26:19.552Z,54.70
2022-09-28T18:31:15.431Z,42.50
2022-09-28T18:38:38.140Z,59.80
2022-09-28T18:41:10.406Z,42.20
2022-09-28T18:43:37.755Z,60.40
2022-09-28T18:46:09.379Z,51.50
2022-09-28T18:48:37.608Z,43.70
2022-09-28T18:51:09.152Z,44.30
2022-09-28T18:56:08.681Z,43.00
2022-09-28T18:58:36.743Z,60.60
2022-09-28T19:01:29.534Z,43.20
2022-09-28T19:04:06.582Z,43.10
2022-09-28T19:06:34.730Z,45.10
2022-09-28T19:11:29.031Z,60.70
2022-09-28T19:16:26.675Z,45.40
2022-09-28T19:18:55.496Z,61.70
2022-09-28T19:26:18.960Z,56.40
2022-09-28T19:28:45.714Z,61.00
2022-09-28T19:31:13.269Z,48.10
2022-09-28T19:33:41.004Z,63.50
2022-09-28T19:36:14.497Z,46.30
2022-09-28T19:41:39.281Z,45.30
2022-09-28T19:44:24.517Z,45.10
2022-09-28T19:47:00.332Z,53.90
2022-09-28T19:49:32.906Z,47.20
2022-09-28T19:52:15.671Z,63.40
2022-09-28T19:54:56.668Z,45.90
2022-09-28T19:57:25.884Z,47.50
2022-09-28T20:07:20.449Z,62.30
2022-09-28T20:17:09.922Z,64.90
2022-09-28T20:24:32.587Z,64.30
2022-09-28T20:56:38.004Z,64.80
2022-09-28T20:59:08.000Z,49.40
2022-09-28T21:04:04.929Z,49.50
2022-09-28T21:06:34.398Z,49.60
2022-09-28T21:09:01.516Z,65.80
2022-09-28T21:11:29.845Z,65.50
2022-09-28T21:14:01.704Z,66.60
2022-09-28T21:16:31.147Z,50.00
2022-09-28T21:18:58.347Z,65.70
2022-09-28T21:21:26.085Z,65.70
2022-09-28T21:23:54.080Z,50.10
2022-09-28T21:26:26.315Z,50.50
2022-09-28T21:31:27.517Z,66.00
2022-09-28T21:43:45.919Z,67.50
2022-09-28T21:51:10.132Z,50.30
2022-09-28T21:53:38.280Z,50.70
2022-09-28T21:56:07.733Z,50.70
2022-09-28T21:58:35.904Z,50.80
2022-09-28T22:01:15.417Z,66.80
2022-09-28T22:03:44.476Z,63.20
2022-09-28T22:06:11.882Z,50.70
2022-09-28T22:11:12.076Z,68.20
2022-09-28T22:13:44.302Z,49.40
2022-09-28T22:16:13.063Z,51.70
2022-09-28T22:21:17.001Z,53.80
2022-09-28T22:28:44.227Z,68.40
2022-09-28T22:33:38.618Z,60.40
2022-09-28T22:46:08.773Z,61.50
2022-09-28T22:51:05.269Z,51.90
2022-09-28T22:53:34.609Z,68.40
2022-09-28T22:56:05.279Z,60.00
2022-09-28T22:58:36.136Z,51.60
2022-09-28T23:01:11.666Z,69.50
2022-09-28T23:11:06.117Z,60.30
2022-09-28T23:16:12.789Z,53.10
2022-09-28T23:18:44.085Z,68.00
2022-09-28T23:21:16.232Z,53.00
2022-09-28T23:23:44.187Z,69.90
2022-09-28T23:26:16.845Z,52.90
2022-09-28T23:31:23.664Z,51.30
2022-09-28T23:38:45.601Z,63.00
2022-09-28T23:46:07.258Z,66.30
2022-09-28T23:48:35.155Z,53.50
2022-09-28T23:51:02.889Z,69.10
2022-09-28T23:53:32.153Z,52.50
